sensor_id;sensor_type;location;lat;lon;timestamp;pressure;altitude;pressure_sealevel;temperature;humidity
77288;BME280;66345;42.694;23.346;2023-08-01T00:02:19;95177.41;;;21.15;58.82
77288;BME280;66345;42.694;23.346;2023-08-01T00:04:45;95176.59;;;21.14;58.65
77288;BME280;66345;42.694;23.346;2023-08-01T00:07:10;95171.94;;;20.99;58.99
77288;BME280;66345;42.694;23.346;2023-08-01T00:09:36;95169.31;;;21.10;58.64
77288;BME280;66345;42.694;23.346;2023-08-01T00:12:01;95168.72;;;21.02;58.64
77288;BME280;66345;42.694;23.346;2023-08-01T00:14:27;95168.44;;;20.99;58.91
77288;BME280;66345;42.694;23.346;2023-08-01T00:16:52;95174.13;;;21.08;58.70
77288;BME280;66345;42.694;23.346;2023-08-01T00:19:18;95164.66;;;20.95;59.39
77288;BME280;66345;42.694;23.346;2023-08-01T00:21:43;95161.13;;;20.94;58.98
77288;BME280;66345;42.694;23.346;2023-08-01T00:24:09;95158.44;;;20.94;58.95
77288;BME280;66345;42.694;23.346;2023-08-01T00:26:34;95163.41;;;20.70;59.75
77288;BME280;66345;42.694;23.346;2023-08-01T00:29:00;95158.03;;;20.75;59.84
77288;BME280;66345;42.694;23.346;2023-08-01T00:31:26;95159.97;;;20.85;59.88
77288;BME280;66345;42.694;23.346;2023-08-01T00:33:51;95166.22;;;20.86;59.70
77288;BME280;66345;42.694;23.346;2023-08-01T00:36:17;95162.94;;;20.78;60.08
77288;BME280;66345;42.694;23.346;2023-08-01T00:38:42;95168.97;;;20.96;59.07
77288;BME280;66345;42.694;23.346;2023-08-01T00:41:11;95166.84;;;21.03;59.17
77288;BME280;66345;42.694;23.346;2023-08-01T00:43:36;95171.19;;;21.14;58.80
77288;BME280;66345;42.694;23.346;2023-08-01T00:46:05;95169.00;;;21.01;58.62
77288;BME280;66345;42.694;23.346;2023-08-01T00:48:34;95172.25;;;21.03;58.27
77288;BME280;66345;42.694;23.346;2023-08-01T00:51:05;95164.72;;;21.10;58.51
77288;BME280;66345;42.694;23.346;2023-08-01T00:53:32;95167.69;;;21.09;58.26
77288;BME280;66345;42.694;23.346;2023-08-01T00:55:58;95160.94;;;21.11;58.14
77288;BME280;66345;42.694;23.346;2023-08-01T00:58:24;95162.53;;;21.07;58.39
77288;BME280;66345;42.694;23.346;2023-08-01T01:00:50;95159.28;;;21.05;58.49
77288;BME280;66345;42.694;23.346;2023-08-01T01:03:16;95158.22;;;21.01;58.60
77288;BME280;66345;42.694;23.346;2023-08-01T01:06:02;95154.94;;;20.99;58.60
77288;BME280;66345;42.694;23.346;2023-08-01T01:08:30;95155.50;;;21.06;58.65
77288;BME280;66345;42.694;23.346;2023-08-01T01:10:56;95160.69;;;21.13;58.69
77288;BME280;66345;42.694;23.346;2023-08-01T01:13:21;95156.06;;;21.08;58.75
77288;BME280;66345;42.694;23.346;2023-08-01T01:15:47;95153.34;;;21.08;58.95
77288;BME280;66345;42.694;23.346;2023-08-01T01:18:13;95144.94;;;20.99;58.73
77288;BME280;66345;42.694;23.346;2023-08-01T01:20:38;95138.91;;;20.77;59.66
77288;BME280;66345;42.694;23.346;2023-08-01T01:23:05;95132.19;;;20.85;59.17
77288;BME280;66345;42.694;23.346;2023-08-01T01:25:31;95134.19;;;21.04;58.51
77288;BME280;66345;42.694;23.346;2023-08-01T01:27:59;95134.47;;;21.08;58.33
77288;BME280;66345;42.694;23.346;2023-08-01T01:30:26;95132.84;;;21.07;58.37
77288;BME280;66345;42.694;23.346;2023-08-01T01:32:52;95139.88;;;21.03;58.21
77288;BME280;66345;42.694;23.346;2023-08-01T01:35:18;95143.28;;;20.88;57.73
77288;BME280;66345;42.694;23.346;2023-08-01T01:37:43;95132.72;;;20.82;58.27
77288;BME280;66345;42.694;23.346;2023-08-01T01:40:09;95138.66;;;20.78;57.74
77288;BME280;66345;42.694;23.346;2023-08-01T01:42:35;95130.88;;;20.87;58.11
77288;BME280;66345;42.694;23.346;2023-08-01T01:45:00;95126.88;;;21.00;57.32
77288;BME280;66345;42.694;23.346;2023-08-01T01:47:25;95138.97;;;20.92;58.50
77288;BME280;66345;42.694;23.346;2023-08-01T01:49:51;95139.69;;;20.72;59.72
77288;BME280;66345;42.694;23.346;2023-08-01T01:52:16;95137.50;;;20.32;61.77
77288;BME280;66345;42.694;23.346;2023-08-01T01:54:42;95142.00;;;20.21;62.42
77288;BME280;66345;42.694;23.346;2023-08-01T01:57:07;95144.16;;;20.19;62.38
77288;BME280;66345;42.694;23.346;2023-08-01T01:59:33;95140.66;;;20.19;62.32
77288;BME280;66345;42.694;23.346;2023-08-01T02:01:58;95143.34;;;20.19;62.12
77288;BME280;66345;42.694;23.346;2023-08-01T02:04:25;95138.72;;;20.14;62.65
77288;BME280;66345;42.694;23.346;2023-08-01T02:06:50;95140.75;;;20.02;62.45
77288;BME280;66345;42.694;23.346;2023-08-01T02:09:18;95143.22;;;20.04;62.73
77288;BME280;66345;42.694;23.346;2023-08-01T02:11:43;95141.31;;;20.04;62.57
77288;BME280;66345;42.694;23.346;2023-08-01T02:14:08;95137.63;;;20.10;62.52
77288;BME280;66345;42.694;23.346;2023-08-01T02:16:34;95140.00;;;20.07;62.44
77288;BME280;66345;42.694;23.346;2023-08-01T02:18:59;95138.09;;;20.07;62.34
77288;BME280;66345;42.694;23.346;2023-08-01T02:21:25;95142.94;;;20.05;62.57
77288;BME280;66345;42.694;23.346;2023-08-01T02:23:50;95140.75;;;20.02;62.58
77288;BME280;66345;42.694;23.346;2023-08-01T02:26:16;95140.53;;;20.09;62.14
77288;BME280;66345;42.694;23.346;2023-08-01T02:28:41;95141.63;;;20.08;62.30
77288;BME280;66345;42.694;23.346;2023-08-01T02:31:07;95133.84;;;20.11;62.32
77288;BME280;66345;42.694;23.346;2023-08-01T02:33:32;95128.94;;;20.08;62.57
77288;BME280;66345;42.694;23.346;2023-08-01T02:35:58;95124.09;;;20.05;62.37
77288;BME280;66345;42.694;23.346;2023-08-01T02:38:23;95134.47;;;19.91;62.50
77288;BME280;66345;42.694;23.346;2023-08-01T02:40:48;95128.28;;;19.91;62.80
77288;BME280;66345;42.694;23.346;2023-08-01T02:43:14;95128.81;;;19.93;63.01
77288;BME280;66345;42.694;23.346;2023-08-01T02:45:41;95131.69;;;19.81;63.27
77288;BME280;66345;42.694;23.346;2023-08-01T02:48:07;95132.84;;;19.90;62.74
77288;BME280;66345;42.694;23.346;2023-08-01T02:50:32;95137.44;;;19.90;62.71
77288;BME280;66345;42.694;23.346;2023-08-01T02:52:58;95131.72;;;19.86;62.90
77288;BME280;66345;42.694;23.346;2023-08-01T02:55:23;95131.16;;;19.84;63.03
77288;BME280;66345;42.694;23.346;2023-08-01T02:57:49;95139.44;;;19.78;63.14
77288;BME280;66345;42.694;23.346;2023-08-01T03:00:14;95137.28;;;19.75;63.03
77288;BME280;66345;42.694;23.346;2023-08-01T03:02:42;95139.63;;;19.66;63.46
77288;BME280;66345;42.694;23.346;2023-08-01T03:05:09;95146.81;;;19.60;63.88
77288;BME280;66345;42.694;23.346;2023-08-01T03:07:35;95144.03;;;19.55;64.27
77288;BME280;66345;42.694;23.346;2023-08-01T03:10:00;95148.50;;;19.66;63.96
77288;BME280;66345;42.694;23.346;2023-08-01T03:12:26;95138.03;;;19.48;64.38
77288;BME280;66345;42.694;23.346;2023-08-01T03:14:52;95149.31;;;19.45;64.81
77288;BME280;66345;42.694;23.346;2023-08-01T03:17:17;95139.31;;;19.19;65.51
77288;BME280;66345;42.694;23.346;2023-08-01T03:19:43;95137.94;;;19.16;65.94
77288;BME280;66345;42.694;23.346;2023-08-01T03:22:09;95139.72;;;19.27;65.42
77288;BME280;66345;42.694;23.346;2023-08-01T03:24:35;95145.66;;;19.29;65.41
77288;BME280;66345;42.694;23.346;2023-08-01T03:27:01;95148.00;;;19.26;65.29
77288;BME280;66345;42.694;23.346;2023-08-01T03:29:26;95153.28;;;19.16;65.54
77288;BME280;66345;42.694;23.346;2023-08-01T03:31:52;95158.28;;;18.85;65.61
77288;BME280;66345;42.694;23.346;2023-08-01T03:34:18;95167.25;;;18.40;66.82
77288;BME280;66345;42.694;23.346;2023-08-01T03:36:43;95163.63;;;18.29;67.30
77288;BME280;66345;42.694;23.346;2023-08-01T03:39:09;95160.19;;;18.34;67.38
77288;BME280;66345;42.694;23.346;2023-08-01T03:41:35;95165.41;;;18.24;67.36
77288;BME280;66345;42.694;23.346;2023-08-01T03:44:01;95157.09;;;18.09;67.73
77288;BME280;66345;42.694;23.346;2023-08-01T03:46:26;95158.16;;;18.08;67.69
77288;BME280;66345;42.694;23.346;2023-08-01T03:48:52;95165.16;;;18.25;67.17
77288;BME280;66345;42.694;23.346;2023-08-01T03:51:17;95168.91;;;18.24;67.20
77288;BME280;66345;42.694;23.346;2023-08-01T03:53:44;95167.25;;;18.40;66.47
77288;BME280;66345;42.694;23.346;2023-08-01T03:56:10;95163.69;;;18.35;66.71
77288;BME280;66345;42.694;23.346;2023-08-01T03:58:36;95171.47;;;18.36;66.71
77288;BME280;66345;42.694;23.346;2023-08-01T04:01:02;95162.31;;;18.32;66.83
77288;BME280;66345;42.694;23.346;2023-08-01T04:03:27;95165.81;;;18.33;67.08
77288;BME280;66345;42.694;23.346;2023-08-01T04:05:53;95164.19;;;18.32;67.08
77288;BME280;66345;42.694;23.346;2023-08-01T04:08:19;95178.50;;;18.20;67.18
77288;BME280;66345;42.694;23.346;2023-08-01T04:10:44;95173.59;;;18.34;67.03
77288;BME280;66345;42.694;23.346;2023-08-01T04:13:10;95177.03;;;18.46;66.48
77288;BME280;66345;42.694;23.346;2023-08-01T04:15:35;95171.56;;;18.58;66.00
77288;BME280;66345;42.694;23.346;2023-08-01T04:18:00;95175.47;;;18.50;66.00
77288;BME280;66345;42.694;23.346;2023-08-01T04:20:26;95175.38;;;18.62;65.92
77288;BME280;66345;42.694;23.346;2023-08-01T04:22:51;95173.69;;;18.73;65.25
77288;BME280;66345;42.694;23.346;2023-08-01T04:25:17;95177.78;;;18.75;65.61
77288;BME280;66345;42.694;23.346;2023-08-01T04:27:43;95181.53;;;18.74;65.66
77288;BME280;66345;42.694;23.346;2023-08-01T04:30:08;95173.84;;;18.83;65.46
77288;BME280;66345;42.694;23.346;2023-08-01T04:32:34;95184.72;;;18.93;64.43
77288;BME280;66345;42.694;23.346;2023-08-01T04:35:00;95166.91;;;19.09;64.20
77288;BME280;66345;42.694;23.346;2023-08-01T04:37:25;95174.69;;;19.05;63.80
77288;BME280;66345;42.694;23.346;2023-08-01T04:39:51;95177.94;;;19.07;64.19
77288;BME280;66345;42.694;23.346;2023-08-01T04:42:16;95172.84;;;19.33;63.07
77288;BME280;66345;42.694;23.346;2023-08-01T04:44:42;95175.53;;;19.33;63.17
77288;BME280;66345;42.694;23.346;2023-08-01T04:47:07;95173.84;;;19.49;62.54
77288;BME280;66345;42.694;23.346;2023-08-01T04:49:33;95172.47;;;19.46;62.52
77288;BME280;66345;42.694;23.346;2023-08-01T04:51:58;95163.88;;;19.49;62.57
77288;BME280;66345;42.694;23.346;2023-08-01T04:54:25;95158.94;;;19.58;61.48
77288;BME280;66345;42.694;23.346;2023-08-01T04:56:50;95162.59;;;19.74;61.26
77288;BME280;66345;42.694;23.346;2023-08-01T04:59:16;95166.63;;;19.76;60.97
77288;BME280;66345;42.694;23.346;2023-08-01T05:01:41;95167.06;;;19.90;60.71
77288;BME280;66345;42.694;23.346;2023-08-01T05:04:07;95172.63;;;20.10;59.35
77288;BME280;66345;42.694;23.346;2023-08-01T05:06:32;95173.06;;;20.02;59.23
77288;BME280;66345;42.694;23.346;2023-08-01T05:08:58;95173.72;;;20.78;57.51
77288;BME280;66345;42.694;23.346;2023-08-01T05:11:23;95160.75;;;22.11;53.08
77288;BME280;66345;42.694;23.346;2023-08-01T05:13:49;95151.88;;;23.41;49.19
77288;BME280;66345;42.694;23.346;2023-08-01T05:16:14;95156.28;;;24.65;46.05
77288;BME280;66345;42.694;23.346;2023-08-01T05:18:40;95168.59;;;25.82;42.82
77288;BME280;66345;42.694;23.346;2023-08-01T05:21:05;95163.25;;;26.99;39.75
77288;BME280;66345;42.694;23.346;2023-08-01T05:23:31;95164.09;;;27.41;38.45
77288;BME280;66345;42.694;23.346;2023-08-01T05:25:56;95170.81;;;28.12;36.88
77288;BME280;66345;42.694;23.346;2023-08-01T05:28:22;95158.75;;;28.71;36.42
77288;BME280;66345;42.694;23.346;2023-08-01T05:30:47;95168.31;;;29.36;34.40
77288;BME280;66345;42.694;23.346;2023-08-01T05:33:13;95165.25;;;29.38;34.68
77288;BME280;66345;42.694;23.346;2023-08-01T05:35:38;95167.91;;;29.51;34.52
77288;BME280;66345;42.694;23.346;2023-08-01T05:38:04;95175.81;;;30.27;32.72
77288;BME280;66345;42.694;23.346;2023-08-01T05:40:30;95171.78;;;30.16;32.69
77288;BME280;66345;42.694;23.346;2023-08-01T05:42:55;95168.34;;;31.23;31.74
77288;BME280;66345;42.694;23.346;2023-08-01T05:45:21;95159.44;;;31.26;31.03
77288;BME280;66345;42.694;23.346;2023-08-01T05:47:46;95171.97;;;31.36;31.03
77288;BME280;66345;42.694;23.346;2023-08-01T05:50:12;95167.53;;;29.44;33.36
77288;BME280;66345;42.694;23.346;2023-08-01T05:52:38;95159.72;;;30.34;32.92
77288;BME280;66345;42.694;23.346;2023-08-01T05:55:03;95164.19;;;31.85;30.14
77288;BME280;66345;42.694;23.346;2023-08-01T05:57:29;95164.63;;;31.57;29.92
77288;BME280;66345;42.694;23.346;2023-08-01T05:59:55;95159.41;;;32.86;28.11
77288;BME280;66345;42.694;23.346;2023-08-01T06:02:20;95158.38;;;32.57;28.13
77288;BME280;66345;42.694;23.346;2023-08-01T06:04:46;95153.72;;;32.70;28.22
77288;BME280;66345;42.694;23.346;2023-08-01T06:07:11;95158.94;;;33.29;27.51
77288;BME280;66345;42.694;23.346;2023-08-01T06:09:37;95149.38;;;34.09;26.00
77288;BME280;66345;42.694;23.346;2023-08-01T06:12:03;95154.97;;;32.94;28.08
77288;BME280;66345;42.694;23.346;2023-08-01T06:14:28;95156.22;;;31.62;30.16
77288;BME280;66345;42.694;23.346;2023-08-01T06:17:11;95157.13;;;32.05;29.29
77288;BME280;66345;42.694;23.346;2023-08-01T06:19:43;95155.84;;;32.85;28.69
77288;BME280;66345;42.694;23.346;2023-08-01T06:22:11;95157.41;;;32.74;28.36
77288;BME280;66345;42.694;23.346;2023-08-01T06:24:37;95158.75;;;32.68;28.80
77288;BME280;66345;42.694;23.346;2023-08-01T06:27:20;95148.16;;;33.24;28.21
77288;BME280;66345;42.694;23.346;2023-08-01T06:29:53;95155.78;;;33.88;27.03
77288;BME280;66345;42.694;23.346;2023-08-01T06:32:36;95148.00;;;33.42;27.15
77288;BME280;66345;42.694;23.346;2023-08-01T06:35:01;95156.69;;;31.17;30.04
77288;BME280;66345;42.694;23.346;2023-08-01T06:37:42;95155.47;;;31.06;30.82
77288;BME280;66345;42.694;23.346;2023-08-01T06:40:16;95146.31;;;32.50;28.96
77288;BME280;66345;42.694;23.346;2023-08-01T06:42:48;95140.66;;;33.00;27.37
77288;BME280;66345;42.694;23.346;2023-08-01T06:45:27;95140.50;;;34.84;25.26
77288;BME280;66345;42.694;23.346;2023-08-01T06:48:23;95142.06;;;35.72;23.74
77288;BME280;66345;42.694;23.346;2023-08-01T06:51:06;95139.72;;;35.74;23.91
77288;BME280;66345;42.694;23.346;2023-08-01T06:53:34;95134.75;;;36.31;23.33
77288;BME280;66345;42.694;23.346;2023-08-01T06:55:59;95132.13;;;37.15;22.07
77288;BME280;66345;42.694;23.346;2023-08-01T06:58:25;95139.09;;;36.32;23.48
77288;BME280;66345;42.694;23.346;2023-08-01T07:00:50;95132.63;;;37.67;21.36
77288;BME280;66345;42.694;23.346;2023-08-01T07:03:16;95131.00;;;38.15;20.50
77288;BME280;66345;42.694;23.346;2023-08-01T07:05:44;95138.00;;;37.79;21.32
77288;BME280;66345;42.694;23.346;2023-08-01T07:08:10;95131.66;;;38.05;20.69
77288;BME280;66345;42.694;23.346;2023-08-01T07:10:35;95131.50;;;37.94;20.75
77288;BME280;66345;42.694;23.346;2023-08-01T07:13:02;95124.81;;;37.72;20.99
77288;BME280;66345;42.694;23.346;2023-08-01T07:15:30;95128.22;;;37.39;21.32
77288;BME280;66345;42.694;23.346;2023-08-01T07:17:55;95134.25;;;38.77;20.22
77288;BME280;66345;42.694;23.346;2023-08-01T07:20:23;95117.59;;;37.41;21.45
77288;BME280;66345;42.694;23.346;2023-08-01T07:22:50;95120.22;;;38.67;19.65
77288;BME280;66345;42.694;23.346;2023-08-01T07:25:18;95122.28;;;35.70;22.90
77288;BME280;66345;42.694;23.346;2023-08-01T07:27:46;95118.94;;;36.66;21.68
77288;BME280;66345;42.694;23.346;2023-08-01T07:30:11;95108.09;;;38.18;20.65
77288;BME280;66345;42.694;23.346;2023-08-01T07:32:37;95108.06;;;39.12;19.15
77288;BME280;66345;42.694;23.346;2023-08-01T07:35:05;95113.06;;;38.99;19.25
77288;BME280;66345;42.694;23.346;2023-08-01T07:37:33;95109.41;;;38.92;19.00
77288;BME280;66345;42.694;23.346;2023-08-01T07:39:59;95099.16;;;39.81;18.64
77288;BME280;66345;42.694;23.346;2023-08-01T07:42:24;95099.13;;;40.39;17.45
77288;BME280;66345;42.694;23.346;2023-08-01T07:44:50;95106.47;;;39.11;19.72
77288;BME280;66345;42.694;23.346;2023-08-01T07:47:15;95107.38;;;39.22;19.75
77288;BME280;66345;42.694;23.346;2023-08-01T07:49:41;95106.16;;;38.52;20.31
77288;BME280;66345;42.694;23.346;2023-08-01T07:52:07;95110.41;;;38.43;19.82
77288;BME280;66345;42.694;23.346;2023-08-01T07:54:32;95112.44;;;40.78;17.70
77288;BME280;66345;42.694;23.346;2023-08-01T07:56:58;95098.66;;;41.21;17.36
77288;BME280;66345;42.694;23.346;2023-08-01T07:59:23;95099.69;;;40.01;18.03
77288;BME280;66345;42.694;23.346;2023-08-01T08:01:49;95099.69;;;40.70;17.74
77288;BME280;66345;42.694;23.346;2023-08-01T08:04:14;95094.38;;;39.78;18.48
77288;BME280;66345;42.694;23.346;2023-08-01T08:06:40;95096.31;;;41.51;17.23
77288;BME280;66345;42.694;23.346;2023-08-01T08:09:06;95099.84;;;41.20;17.10
77288;BME280;66345;42.694;23.346;2023-08-01T08:11:32;95086.03;;;40.36;18.31
77288;BME280;66345;42.694;23.346;2023-08-01T08:14:01;95082.78;;;41.75;16.50
77288;BME280;66345;42.694;23.346;2023-08-01T08:16:26;95078.78;;;41.87;16.51
77288;BME280;66345;42.694;23.346;2023-08-01T08:19:13;95077.56;;;42.05;16.25
77288;BME280;66345;42.694;23.346;2023-08-01T08:21:58;95082.66;;;39.10;19.06
77288;BME280;66345;42.694;23.346;2023-08-01T08:24:23;95075.63;;;41.81;16.35
77288;BME280;66345;42.694;23.346;2023-08-01T08:26:49;95077.94;;;41.18;16.14
77288;BME280;66345;42.694;23.346;2023-08-01T08:29:15;95075.00;;;39.88;17.60
77288;BME280;66345;42.694;23.346;2023-08-01T08:31:40;95063.91;;;39.95;17.85
77288;BME280;66345;42.694;23.346;2023-08-01T08:34:08;95066.44;;;41.70;16.19
77288;BME280;66345;42.694;23.346;2023-08-01T08:36:34;95061.28;;;41.36;16.66
77288;BME280;66345;42.694;23.346;2023-08-01T08:38:59;95061.56;;;43.70;14.63
77288;BME280;66345;42.694;23.346;2023-08-01T08:41:27;95056.44;;;43.10;14.55
77288;BME280;66345;42.694;23.346;2023-08-01T08:43:56;95060.16;;;39.19;18.08
77288;BME280;66345;42.694;23.346;2023-08-01T08:46:28;95049.44;;;38.16;19.53
77288;BME280;66345;42.694;23.346;2023-08-01T08:48:57;95044.75;;;37.64;20.65
77288;BME280;66345;42.694;23.346;2023-08-01T08:51:25;95041.06;;;40.27;17.36
77288;BME280;66345;42.694;23.346;2023-08-01T08:53:53;95037.81;;;41.37;16.63
77288;BME280;66345;42.694;23.346;2023-08-01T08:56:37;95038.88;;;42.22;15.71
77288;BME280;66345;42.694;23.346;2023-08-01T08:59:03;95038.19;;;41.61;16.22
77288;BME280;66345;42.694;23.346;2023-08-01T09:01:32;95033.38;;;41.93;15.60
77288;BME280;66345;42.694;23.346;2023-08-01T09:03:58;95031.59;;;42.56;15.11
77288;BME280;66345;42.694;23.346;2023-08-01T09:06:49;95032.59;;;41.68;15.77
77288;BME280;66345;42.694;23.346;2023-08-01T09:09:15;95026.03;;;42.46;15.95
77288;BME280;66345;42.694;23.346;2023-08-01T09:11:49;95027.56;;;40.22;17.28
77288;BME280;66345;42.694;23.346;2023-08-01T09:14:15;95020.56;;;40.71;17.31
77288;BME280;66345;42.694;23.346;2023-08-01T09:16:41;95015.91;;;39.99;18.06
77288;BME280;66345;42.694;23.346;2023-08-01T09:19:07;95006.59;;;39.70;17.25
77288;BME280;66345;42.694;23.346;2023-08-01T09:21:34;95008.84;;;43.20;14.61
77288;BME280;66345;42.694;23.346;2023-08-01T09:24:10;95006.88;;;42.55;15.72
77288;BME280;66345;42.694;23.346;2023-08-01T09:26:36;95002.72;;;41.68;16.32
77288;BME280;66345;42.694;23.346;2023-08-01T09:29:02;95011.50;;;39.35;17.74
77288;BME280;66345;42.694;23.346;2023-08-01T09:31:33;95005.56;;;41.72;15.94
77288;BME280;66345;42.694;23.346;2023-08-01T09:34:02;95000.94;;;39.55;17.54
77288;BME280;66345;42.694;23.346;2023-08-01T09:36:34;95003.09;;;41.95;15.36
77288;BME280;66345;42.694;23.346;2023-08-01T09:39:03;95003.06;;;42.97;14.32
77288;BME280;66345;42.694;23.346;2023-08-01T09:41:30;94995.13;;;39.20;17.90
77288;BME280;66345;42.694;23.346;2023-08-01T09:43:56;94995.19;;;39.85;17.41
77288;BME280;66345;42.694;23.346;2023-08-01T09:46:22;94986.97;;;40.07;17.27
77288;BME280;66345;42.694;23.346;2023-08-01T09:48:47;94989.16;;;39.21;18.00
77288;BME280;66345;42.694;23.346;2023-08-01T09:51:14;94985.56;;;40.52;17.12
77288;BME280;66345;42.694;23.346;2023-08-01T09:53:52;94982.22;;;38.60;18.70
77288;BME280;66345;42.694;23.346;2023-08-01T09:56:23;94968.97;;;39.86;17.42
77288;BME280;66345;42.694;23.346;2023-08-01T09:58:50;94982.09;;;38.83;18.77
77288;BME280;66345;42.694;23.346;2023-08-01T10:01:18;94964.50;;;40.55;17.50
77288;BME280;66345;42.694;23.346;2023-08-01T10:03:45;94964.97;;;41.07;16.52
77288;BME280;66345;42.694;23.346;2023-08-01T10:06:23;94960.56;;;40.88;16.76
77288;BME280;66345;42.694;23.346;2023-08-01T10:08:50;94953.00;;;40.74;16.75
77288;BME280;66345;42.694;23.346;2023-08-01T10:11:17;94957.22;;;42.10;15.89
77288;BME280;66345;42.694;23.346;2023-08-01T10:13:44;94942.31;;;41.12;16.10
77288;BME280;66345;42.694;23.346;2023-08-01T10:16:11;94953.78;;;41.74;15.26
77288;BME280;66345;42.694;23.346;2023-08-01T10:18:37;94943.75;;;41.95;16.03
77288;BME280;66345;42.694;23.346;2023-08-01T10:21:05;94939.91;;;42.51;15.23
77288;BME280;66345;42.694;23.346;2023-08-01T10:23:35;94941.47;;;41.40;16.60
77288;BME280;66345;42.694;23.346;2023-08-01T10:26:05;94935.22;;;42.97;15.11
77288;BME280;66345;42.694;23.346;2023-08-01T10:28:34;94939.44;;;41.69;16.06
77288;BME280;66345;42.694;23.346;2023-08-01T10:31:14;94934.06;;;39.92;17.64
77288;BME280;66345;42.694;23.346;2023-08-01T10:33:47;94926.75;;;40.61;17.46
77288;BME280;66345;42.694;23.346;2023-08-01T10:41:33;94917.28;;;37.60;20.06
77288;BME280;66345;42.694;23.346;2023-08-01T10:52:16;94915.84;;;33.34;25.36
77288;BME280;66345;42.694;23.346;2023-08-01T10:54:43;94908.44;;;32.85;26.07
77288;BME280;66345;42.694;23.346;2023-08-01T10:57:08;94901.84;;;32.29;26.98
77288;BME280;66345;42.694;23.346;2023-08-01T10:59:40;94901.22;;;32.44;26.94
77288;BME280;66345;42.694;23.346;2023-08-01T11:02:07;94902.91;;;32.37;26.86
77288;BME280;66345;42.694;23.346;2023-08-01T11:04:33;94896.34;;;32.29;26.57
77288;BME280;66345;42.694;23.346;2023-08-01T11:06:58;94891.78;;;31.88;27.23
77288;BME280;66345;42.694;23.346;2023-08-01T11:09:25;94884.03;;;31.90;27.11
77288;BME280;66345;42.694;23.346;2023-08-01T11:11:54;94882.38;;;30.93;27.94
77288;BME280;66345;42.694;23.346;2023-08-01T11:14:21;94877.22;;;30.71;28.29
77288;BME280;66345;42.694;23.346;2023-08-01T11:16:48;94870.53;;;30.80;29.14
77288;BME280;66345;42.694;23.346;2023-08-01T11:19:21;94866.22;;;31.00;28.50
77288;BME280;66345;42.694;23.346;2023-08-01T11:21:47;94855.00;;;31.35;28.10
77288;BME280;66345;42.694;23.346;2023-08-01T11:24:12;94856.78;;;31.10;28.47
77288;BME280;66345;42.694;23.346;2023-08-01T11:26:48;94861.00;;;31.28;28.04
77288;BME280;66345;42.694;23.346;2023-08-01T11:29:15;94856.38;;;30.78;28.10
77288;BME280;66345;42.694;23.346;2023-08-01T11:31:41;94858.75;;;30.50;29.24
77288;BME280;66345;42.694;23.346;2023-08-01T11:34:07;94857.28;;;30.82;28.93
77288;BME280;66345;42.694;23.346;2023-08-01T11:36:35;94852.38;;;31.17;28.56
77288;BME280;66345;42.694;23.346;2023-08-01T11:39:02;94852.47;;;31.30;27.93
77288;BME280;66345;42.694;23.346;2023-08-01T11:41:28;94856.19;;;31.04;28.14
77288;BME280;66345;42.694;23.346;2023-08-01T11:43:54;94851.97;;;31.07;28.22
77288;BME280;66345;42.694;23.346;2023-08-01T11:46:22;94847.31;;;31.07;27.61
77288;BME280;66345;42.694;23.346;2023-08-01T11:48:48;94849.88;;;30.83;27.92
77288;BME280;66345;42.694;23.346;2023-08-01T11:51:17;94842.28;;;30.88;28.26
77288;BME280;66345;42.694;23.346;2023-08-01T11:53:42;94832.69;;;31.24;27.73
77288;BME280;66345;42.694;23.346;2023-08-01T11:56:08;94830.50;;;31.09;27.91
77288;BME280;66345;42.694;23.346;2023-08-01T11:58:40;94834.25;;;31.04;27.21
77288;BME280;66345;42.694;23.346;2023-08-01T12:01:11;94824.69;;;31.10;27.09
77288;BME280;66345;42.694;23.346;2023-08-01T12:06:12;94808.81;;;31.70;27.08
77288;BME280;66345;42.694;23.346;2023-08-01T12:08:42;94811.63;;;31.82;26.95
77288;BME280;66345;42.694;23.346;2023-08-01T12:11:22;94801.63;;;31.32;27.15
77288;BME280;66345;42.694;23.346;2023-08-01T12:13:48;94798.34;;;31.18;27.83
77288;BME280;66345;42.694;23.346;2023-08-01T12:16:24;94803.53;;;30.99;27.75
77288;BME280;66345;42.694;23.346;2023-08-01T12:18:50;94793.56;;;30.94;28.37
77288;BME280;66345;42.694;23.346;2023-08-01T12:21:15;94791.88;;;31.02;27.96
77288;BME280;66345;42.694;23.346;2023-08-01T12:23:40;94793.00;;;31.01;28.61
77288;BME280;66345;42.694;23.346;2023-08-01T12:26:07;94792.28;;;30.71;28.36
77288;BME280;66345;42.694;23.346;2023-08-01T12:28:32;94783.59;;;30.09;29.43
77288;BME280;66345;42.694;23.346;2023-08-01T12:30:58;94784.34;;;30.19;28.92
77288;BME280;66345;42.694;23.346;2023-08-01T12:33:24;94777.91;;;30.44;29.21
77288;BME280;66345;42.694;23.346;2023-08-01T12:35:50;94778.13;;;30.60;28.61
77288;BME280;66345;42.694;23.346;2023-08-01T12:38:18;94775.84;;;30.91;29.03
77288;BME280;66345;42.694;23.346;2023-08-01T12:40:44;94772.97;;;30.67;28.08
77288;BME280;66345;42.694;23.346;2023-08-01T12:43:09;94776.28;;;30.22;28.39
77288;BME280;66345;42.694;23.346;2023-08-01T12:45:35;94774.59;;;30.59;28.54
77288;BME280;66345;42.694;23.346;2023-08-01T12:48:00;94774.53;;;30.77;28.08
77288;BME280;66345;42.694;23.346;2023-08-01T12:50:26;94771.44;;;30.78;28.36
77288;BME280;66345;42.694;23.346;2023-08-01T12:52:51;94762.19;;;30.62;28.25
77288;BME280;66345;42.694;23.346;2023-08-01T12:55:17;94759.69;;;30.78;28.07
77288;BME280;66345;42.694;23.346;2023-08-01T12:57:42;94760.53;;;30.90;28.79
77288;BME280;66345;42.694;23.346;2023-08-01T13:00:09;94752.38;;;31.03;27.58
77288;BME280;66345;42.694;23.346;2023-08-01T13:02:40;94752.63;;;30.89;27.87
77288;BME280;66345;42.694;23.346;2023-08-01T13:05:05;94752.63;;;30.89;27.45
77288;BME280;66345;42.694;23.346;2023-08-01T13:07:31;94748.41;;;30.50;27.37